createdAt,value
2023-09-06T00:00:05.868Z,19.06
2023-09-06T00:10:07.170Z,18.94
2023-09-06T00:20:08.051Z,18.75
2023-09-06T00:30:08.915Z,18.63
2023-09-06T00:40:12.763Z,18.19
2023-09-06T00:50:13.601Z,18.44
2023-09-06T01:00:14.501Z,18.13
2023-09-06T01:10:15.810Z,17.94
2023-09-06T01:20:16.682Z,17.69
2023-09-06T01:30:17.574Z,17.31
2023-09-06T01:40:18.753Z,17.25
2023-09-06T01:50:20.032Z,17
2023-09-06T02:00:21.392Z,16.69
2023-09-06T02:10:22.249Z,16.5
2023-09-06T02:20:23.190Z,16.31
2023-09-06T02:30:24.021Z,16.38
2023-09-06T02:40:24.916Z,15.94
2023-09-06T02:50:25.789Z,16.25
2023-09-06T03:00:27.485Z,15.69
2023-09-06T03:10:28.639Z,15.5
2023-09-06T03:20:29.561Z,15.44
2023-09-06T03:30:30.725Z,15.5
2023-09-06T03:40:31.647Z,15.38
2023-09-06T03:50:32.538Z,15.19
2023-09-06T04:00:34.001Z,14.56
2023-09-06T04:10:34.896Z,14.88
2023-09-06T04:20:35.773Z,14.88
2023-09-06T04:30:37.106Z,14.81
2023-09-06T04:40:38.050Z,14.69
2023-09-06T04:50:38.900Z,14.5
2023-09-06T05:00:40.549Z,14.88
2023-09-06T05:10:41.665Z,14.56
2023-09-06T05:20:42.537Z,14.94
2023-09-06T05:30:43.804Z,14.88
2023-09-06T05:40:44.891Z,15
2023-09-06T05:50:46.122Z,15.25
2023-09-06T06:00:47.018Z,15.25
2023-09-06T06:10:47.916Z,15.19
2023-09-06T06:20:49.250Z,17.44
2023-09-06T06:30:50.150Z,28.63
2023-09-06T06:40:51.068Z,31.69
2023-09-06T06:50:52.306Z,32.94
2023-09-06T07:00:53.425Z,33.44
2023-09-06T07:10:54.306Z,29.75
2023-09-06T07:20:55.630Z,27.5
2023-09-06T07:30:56.517Z,23.75
2023-09-06T07:40:57.476Z,22.25
2023-09-06T07:50:58.887Z,21.81
2023-09-06T08:01:11.241Z,22
2023-09-06T08:11:06.546Z,22
2023-09-06T08:21:07.798Z,21.75
2023-09-06T08:31:08.797Z,22.19
2023-09-06T08:41:09.855Z,22.19
2023-09-06T08:51:11.197Z,22.63
2023-09-06T09:01:12.127Z,22.75
2023-09-06T09:11:13.054Z,23.31
2023-09-06T09:21:14.332Z,23
2023-09-06T09:31:15.222Z,23.06
2023-09-06T09:41:16.208Z,23.38
2023-09-06T09:51:17.507Z,23.88
2023-09-06T10:01:18.627Z,23.69
2023-09-06T10:11:19.493Z,24.06
2023-09-06T10:21:20.409Z,24
2023-09-06T10:31:21.763Z,23.88
2023-09-06T10:41:22.682Z,24.19
2023-09-06T10:51:23.577Z,24.56
2023-09-06T11:01:24.899Z,24.38
2023-09-06T11:11:26.128Z,24.69
2023-09-06T11:21:27.068Z,25.06
2023-09-06T11:31:28.385Z,25.19
2023-09-06T11:41:29.308Z,25.19
2023-09-06T11:51:30.237Z,25.56
2023-09-06T12:01:31.455Z,25.88
2023-09-06T12:11:32.385Z,25.81
2023-09-06T12:21:33.285Z,26
2023-09-06T12:31:34.532Z,26.25
2023-09-06T12:41:35.494Z,26.63
2023-09-06T12:51:36.702Z,26.63
2023-09-06T13:01:38.034Z,26.5
2023-09-06T13:11:38.946Z,26.94
2023-09-06T13:21:39.866Z,26.88
2023-09-06T13:31:42.607Z,27.13
2023-09-06T13:41:43.582Z,27.31
2023-09-06T13:51:44.567Z,27.44
2023-09-06T14:01:45.904Z,27.69
2023-09-06T14:11:46.888Z,27.94
2023-09-06T14:21:47.776Z,27.94
2023-09-06T14:31:49.090Z,27.94
2023-09-06T14:41:50.075Z,28.19
2023-09-06T14:51:50.990Z,28.06
2023-09-06T15:01:52.326Z,28.19
2023-09-06T15:11:53.240Z,28.31
2023-09-06T15:21:54.169Z,28.38
2023-09-06T15:31:56.193Z,28.38
2023-09-06T15:41:57.098Z,28.63
2023-09-06T15:51:57.990Z,28.56
2023-09-06T16:01:58.929Z,28.38
2023-09-06T16:11:59.842Z,28.56
2023-09-06T16:22:00.788Z,28.56
2023-09-06T16:32:02.047Z,28.63
2023-09-06T16:42:02.983Z,29.88
2023-09-06T16:52:03.864Z,29.06
2023-09-06T17:02:04.843Z,28.44
2023-09-06T17:12:05.746Z,28
2023-09-06T17:22:07.152Z,27.56
2023-09-06T17:32:08.108Z,27.25
2023-09-06T17:42:09.019Z,26.56
2023-09-06T17:52:09.888Z,26.06
2023-09-06T18:02:10.941Z,24.88
2023-09-06T18:12:11.926Z,24.06
2023-09-06T18:22:12.944Z,23.5
2023-09-06T18:32:14.004Z,23.19
2023-09-06T18:42:14.941Z,23.06
2023-09-06T18:52:15.819Z,22.75
2023-09-06T19:02:16.822Z,22.5
2023-09-06T19:12:17.720Z,22.19
2023-09-06T19:22:18.579Z,21.81
2023-09-06T19:32:19.461Z,21.19
2023-09-06T19:42:20.383Z,21.38
2023-09-06T19:52:21.277Z,20.88
2023-09-06T20:02:22.266Z,21.13
2023-09-06T20:12:23.718Z,20.94
2023-09-06T20:22:24.716Z,20.81
2023-09-06T20:32:25.638Z,22.5
2023-09-06T20:42:26.978Z,22.44
2023-09-06T20:52:27.838Z,20.31
2023-09-06T21:02:28.762Z,19.63
2023-09-06T21:12:29.916Z,19.63
2023-09-06T21:22:30.812Z,19.38
2023-09-06T21:32:31.715Z,19.38
2023-09-06T21:42:32.987Z,19.31
2023-09-06T21:52:33.896Z,19.13
2023-09-06T22:02:34.822Z,19.06
2023-09-06T22:12:36.240Z,18.88
2023-09-06T22:22:37.144Z,18.81
2023-09-06T22:32:38.096Z,18.94
2023-09-06T22:42:39.337Z,18.88
2023-09-06T22:52:40.266Z,18.44
2023-09-06T23:02:41.242Z,18.19
2023-09-06T23:12:43.630Z,17.94
2023-09-06T23:22:44.497Z,18.19
2023-09-06T23:32:45.364Z,18.19
2023-09-06T23:42:46.722Z,18
2023-09-06T23:52:47.616Z,18.06
